createdAt,value
2022-09-26T00:01:11.212Z,100.00
2022-09-26T00:03:38.187Z,100.00
2022-09-26T00:06:06.790Z,100.00
2022-09-26T00:08:34.026Z,100.00
2022-09-26T00:11:01.918Z,100.00
2022-09-26T00:13:29.349Z,100.00
2022-09-26T00:15:56.436Z,100.00
2022-09-26T00:18:23.329Z,100.00
2022-09-26T00:20:50.308Z,100.00
2022-09-26T00:23:17.208Z,100.00
2022-09-26T00:25:48.213Z,100.00
2022-09-26T00:28:15.388Z,100.00
2022-09-26T00:30:42.412Z,100.00
2022-09-26T00:33:09.327Z,100.00
2022-09-26T00:35:36.288Z,100.00
2022-09-26T00:38:03.270Z,100.00
2022-09-26T00:40:30.620Z,100.00
2022-09-26T00:42:58.027Z,100.00
2022-09-26T00:45:26.610Z,100.00
2022-09-26T00:48:01.809Z,100.00
2022-09-26T00:50:36.747Z,100.00
2022-09-26T00:53:11.010Z,100.00
2022-09-26T00:55:40.169Z,100.00
2022-09-26T00:58:14.969Z,100.00
2022-09-26T01:00:42.461Z,100.00
2022-09-26T01:03:09.452Z,100.00
2022-09-26T01:05:36.337Z,100.00
2022-09-26T01:08:03.148Z,100.00
2022-09-26T01:10:30.258Z,100.00
2022-09-26T01:12:57.769Z,100.00
2022-09-26T01:15:24.648Z,100.00
2022-09-26T01:17:51.466Z,100.00
2022-09-26T01:20:36.848Z,100.00
2022-09-26T01:23:18.630Z,100.00
2022-09-26T01:26:03.832Z,100.00
2022-09-26T01:28:55.572Z,100.00
2022-09-26T01:32:09.945Z,100.00
2022-09-26T01:34:54.991Z,100.00
2022-09-26T01:37:27.828Z,100.00
2022-09-26T01:40:07.157Z,100.00
2022-09-26T01:43:07.036Z,100.00
2022-09-26T01:45:43.863Z,100.00
2022-09-26T01:48:17.129Z,100.00
2022-09-26T01:50:45.833Z,100.00
2022-09-26T01:53:12.607Z,100.00
2022-09-26T01:55:45.489Z,100.00
2022-09-26T01:58:18.812Z,100.00
2022-09-26T02:00:47.178Z,100.00
2022-09-26T02:03:16.734Z,100.00
2022-09-26T02:06:00.688Z,100.00
2022-09-26T02:08:42.330Z,100.00
2022-09-26T02:11:18.932Z,100.00
2022-09-26T02:14:06.385Z,100.00
2022-09-26T02:16:39.044Z,100.00
2022-09-26T02:19:33.691Z,100.00
2022-09-26T02:22:00.568Z,100.00
2022-09-26T02:24:27.805Z,100.00
2022-09-26T02:26:54.728Z,100.00
2022-09-26T02:29:21.629Z,100.00
2022-09-26T02:31:56.787Z,100.00
2022-09-26T02:34:24.669Z,100.00
2022-09-26T02:36:51.890Z,100.00
2022-09-26T02:39:18.889Z,100.00
2022-09-26T02:42:07.691Z,100.00
2022-09-26T02:44:53.028Z,100.00
2022-09-26T02:47:28.850Z,100.00
2022-09-26T02:50:33.637Z,100.00
2022-09-26T02:53:06.389Z,100.00
2022-09-26T02:55:55.909Z,100.00
2022-09-26T02:58:25.669Z,100.00
2022-09-26T03:01:00.894Z,100.00
2022-09-26T03:03:32.706Z,100.00
2022-09-26T03:05:59.787Z,100.00
2022-09-26T03:08:27.808Z,100.00
2022-09-26T03:10:56.030Z,100.00
2022-09-26T03:13:22.869Z,100.00
2022-09-26T03:15:53.989Z,100.00
2022-09-26T03:18:25.533Z,100.00
2022-09-26T03:20:55.047Z,100.00
2022-09-26T03:23:25.389Z,100.00
2022-09-26T03:26:11.669Z,100.00
2022-09-26T03:28:38.568Z,100.00
2022-09-26T03:31:05.751Z,100.00
2022-09-26T03:33:32.568Z,100.00
2022-09-26T03:36:00.574Z,100.00
2022-09-26T03:38:27.689Z,100.00
2022-09-26T03:40:54.724Z,100.00
2022-09-26T03:43:24.397Z,100.00
2022-09-26T03:45:51.473Z,100.00
2022-09-26T03:48:18.408Z,100.00
2022-09-26T03:50:45.610Z,100.00
2022-09-26T03:53:12.488Z,100.00
2022-09-26T03:55:39.565Z,100.00
2022-09-26T03:58:07.009Z,100.00
2022-09-26T04:00:33.973Z,100.00
2022-09-26T04:03:04.849Z,100.00
2022-09-26T04:05:31.788Z,100.00
2022-09-26T04:07:59.167Z,100.00
2022-09-26T04:10:26.109Z,100.00
2022-09-26T04:12:52.989Z,100.00
2022-09-26T04:15:19.859Z,100.00
2022-09-26T04:17:46.593Z,100.00
2022-09-26T04:20:13.533Z,100.00
2022-09-26T04:22:42.428Z,100.00
2022-09-26T04:25:10.373Z,100.00
2022-09-26T04:27:38.107Z,100.00
2022-09-26T04:30:05.378Z,100.00
2022-09-26T04:32:32.228Z,100.00
2022-09-26T04:34:59.048Z,100.00
2022-09-26T04:37:25.854Z,100.00
2022-09-26T04:39:52.648Z,100.00
2022-09-26T04:42:19.790Z,100.00
2022-09-26T04:44:48.359Z,100.00
2022-09-26T04:47:15.228Z,100.00
2022-09-26T04:49:42.049Z,100.00
2022-09-26T04:52:08.811Z,100.00
2022-09-26T04:54:37.497Z,100.00
2022-09-26T04:57:04.812Z,100.00
2022-09-26T04:59:31.748Z,100.00
2022-09-26T05:01:58.696Z,100.00
2022-09-26T05:04:27.784Z,100.00
2022-09-26T05:06:58.014Z,100.00
2022-09-26T05:09:25.355Z,100.00
2022-09-26T05:11:52.427Z,100.00
2022-09-26T05:14:19.308Z,100.00
2022-09-26T05:16:47.318Z,100.00
2022-09-26T05:19:14.429Z,100.00
2022-09-26T05:21:43.279Z,100.00
2022-09-26T05:24:28.403Z,100.00
2022-09-26T05:26:55.971Z,100.00
2022-09-26T05:29:22.748Z,100.00
2022-09-26T05:31:50.094Z,100.00
2022-09-26T05:34:20.158Z,100.00
2022-09-26T05:36:47.463Z,100.00
2022-09-26T05:39:32.731Z,100.00
2022-09-26T05:41:59.818Z,100.00
2022-09-26T05:44:27.659Z,100.00
2022-09-26T05:46:55.238Z,100.00
2022-09-26T05:49:22.167Z,100.00
2022-09-26T05:51:49.146Z,100.00
2022-09-26T05:54:16.697Z,100.00
2022-09-26T05:56:43.550Z,100.00
2022-09-26T05:59:10.600Z,100.00
2022-09-26T06:01:37.555Z,100.00
2022-09-26T06:04:04.448Z,100.00
2022-09-26T06:06:31.310Z,100.00
2022-09-26T06:08:58.215Z,100.00
2022-09-26T06:11:30.792Z,100.00
2022-09-26T06:13:59.648Z,100.00
2022-09-26T06:16:26.916Z,100.00
2022-09-26T06:18:55.626Z,100.00
2022-09-26T06:21:23.029Z,100.00
2022-09-26T06:23:49.908Z,100.00
2022-09-26T06:26:20.189Z,100.00
2022-09-26T06:28:47.312Z,100.00
2022-09-26T06:31:16.884Z,100.00
2022-09-26T06:33:44.187Z,100.00
2022-09-26T06:36:11.789Z,100.00
2022-09-26T06:38:38.730Z,100.00
2022-09-26T06:41:07.546Z,100.00
2022-09-26T06:43:34.656Z,100.00
2022-09-26T06:46:01.574Z,100.00
2022-09-26T06:48:28.394Z,100.00
2022-09-26T06:50:57.132Z,99.99
2022-09-26T06:53:24.037Z,100.00
2022-09-26T06:55:50.868Z,99.90
2022-09-26T06:58:17.770Z,100.00
2022-09-26T07:00:44.790Z,100.00
2022-09-26T07:03:13.643Z,100.00
2022-09-26T07:05:40.475Z,100.00
2022-09-26T07:08:07.287Z,100.00
2022-09-26T07:10:37.676Z,100.00
2022-09-26T07:13:09.519Z,100.00
2022-09-26T07:15:37.028Z,100.00
2022-09-26T07:18:05.048Z,100.00
2022-09-26T07:20:33.476Z,100.00
2022-09-26T07:23:04.227Z,100.00
2022-09-26T07:25:32.202Z,100.00
2022-09-26T07:27:59.413Z,99.62
2022-09-26T07:30:26.452Z,98.72
2022-09-26T07:32:53.333Z,96.65
2022-09-26T07:35:20.356Z,94.58
2022-09-26T07:37:51.903Z,93.40
2022-09-26T07:40:21.284Z,92.41
2022-09-26T07:43:09.243Z,90.38
2022-09-26T07:45:53.667Z,89.78
2022-09-26T07:48:58.751Z,86.86
2022-09-26T07:51:25.676Z,84.14
2022-09-26T07:53:52.671Z,84.19
2022-09-26T07:56:20.832Z,79.31
2022-09-26T07:58:49.008Z,76.79
2022-09-26T08:01:16.729Z,73.92
2022-09-26T08:03:45.494Z,75.49
2022-09-26T08:06:20.294Z,76.65
2022-09-26T08:08:48.379Z,76.53
2022-09-26T08:11:18.306Z,75.47
2022-09-26T08:13:45.575Z,71.92
2022-09-26T08:16:15.432Z,70.84
2022-09-26T08:18:42.359Z,68.26
2022-09-26T08:21:09.232Z,68.33
2022-09-26T08:23:36.194Z,66.57
2022-09-26T08:26:07.174Z,64.70
2022-09-26T08:28:37.674Z,64.04
2022-09-26T08:31:05.265Z,63.97
2022-09-26T08:33:35.634Z,66.32
2022-09-26T08:36:06.852Z,65.32
2022-09-26T08:38:35.533Z,64.47
2022-09-26T08:41:20.382Z,61.22
2022-09-26T08:43:50.006Z,59.96
2022-09-26T08:46:43.834Z,59.67
2022-09-26T08:49:26.191Z,59.04
2022-09-26T08:51:54.494Z,59.03
2022-09-26T08:54:24.254Z,54.12
2022-09-26T08:56:54.349Z,56.79
2022-09-26T08:59:44.813Z,57.90
2022-09-26T09:02:51.373Z,59.14
2022-09-26T09:05:43.882Z,57.57
2022-09-26T09:08:22.258Z,58.37
2022-09-26T09:11:22.411Z,59.95
2022-09-26T09:14:23.471Z,65.52
2022-09-26T09:17:10.995Z,63.02
2022-09-26T09:19:59.664Z,68.11
2022-09-26T09:22:46.511Z,68.81
2022-09-26T09:25:29.795Z,66.35
2022-09-26T09:28:10.671Z,69.33
2022-09-26T09:30:43.854Z,66.66
2022-09-26T09:33:59.791Z,68.60
2022-09-26T09:36:33.672Z,67.52
2022-09-26T09:39:06.575Z,67.54
2022-09-26T09:41:43.947Z,65.37
2022-09-26T09:44:25.911Z,69.25
2022-09-26T09:46:52.876Z,67.16
2022-09-26T09:49:25.816Z,67.12
2022-09-26T09:52:41.094Z,65.85
2022-09-26T09:55:26.128Z,66.22
2022-09-26T09:58:20.489Z,68.45
2022-09-26T10:01:00.433Z,66.70
2022-09-26T10:03:33.458Z,68.98
2022-09-26T10:06:01.038Z,67.80
2022-09-26T10:08:31.442Z,67.45
2022-09-26T10:11:24.251Z,70.07
2022-09-26T10:13:56.175Z,68.94
2022-09-26T10:16:23.483Z,70.24
2022-09-26T10:19:00.802Z,69.27
2022-09-26T10:21:39.503Z,72.16
2022-09-26T10:24:27.569Z,73.43
2022-09-26T10:26:54.550Z,71.30
2022-09-26T10:29:33.990Z,73.11
2022-09-26T10:32:01.209Z,72.08
2022-09-26T10:34:29.673Z,76.38
2022-09-26T10:36:56.951Z,74.27
2022-09-26T10:42:36.634Z,77.01
2022-09-26T10:45:11.280Z,76.70
2022-09-26T10:47:38.189Z,72.72
2022-09-26T10:50:12.513Z,78.11
2022-09-26T10:53:09.043Z,78.21
2022-09-26T10:55:40.672Z,78.65
2022-09-26T10:58:13.667Z,77.20
2022-09-26T11:00:45.106Z,76.61
2022-09-26T11:03:14.575Z,78.89
2022-09-26T11:06:01.345Z,77.90
2022-09-26T11:08:35.152Z,77.39
2022-09-26T11:11:04.467Z,79.14
2022-09-26T11:13:39.751Z,77.53
2022-09-26T11:16:14.843Z,77.24
2022-09-26T11:18:43.194Z,76.03
2022-09-26T11:21:29.310Z,75.01
2022-09-26T11:24:22.870Z,77.00
2022-09-26T11:27:11.620Z,76.57
2022-09-26T11:29:48.093Z,79.10
2022-09-26T11:32:18.991Z,78.83
2022-09-26T11:34:45.928Z,75.87
2022-09-26T11:37:45.333Z,77.01
2022-09-26T11:40:12.320Z,77.26
2022-09-26T11:42:57.834Z,77.03
2022-09-26T11:45:55.854Z,76.35
2022-09-26T11:48:56.511Z,78.41
2022-09-26T11:51:48.327Z,78.27
2022-09-26T11:54:57.176Z,77.17
2022-09-26T11:57:26.721Z,79.16
2022-09-26T12:00:27.660Z,81.98
2022-09-26T12:03:33.653Z,81.11
2022-09-26T12:06:33.563Z,80.31
2022-09-26T12:09:18.768Z,79.40
2022-09-26T12:11:53.560Z,75.23
2022-09-26T12:14:39.393Z,72.00
2022-09-26T12:17:23.833Z,71.08
2022-09-26T12:19:58.027Z,71.48
2022-09-26T12:22:51.391Z,74.61
2022-09-26T12:25:56.172Z,73.43
2022-09-26T12:28:31.953Z,73.09
2022-09-26T12:31:24.330Z,74.76
2022-09-26T12:34:13.072Z,75.86
2022-09-26T12:37:02.615Z,77.27
2022-09-26T12:40:09.517Z,80.69
2022-09-26T12:43:14.206Z,81.98
2022-09-26T12:45:59.917Z,83.03
2022-09-26T12:48:32.712Z,79.97
2022-09-26T12:51:28.746Z,81.89
2022-09-26T12:54:17.552Z,82.81
2022-09-26T12:56:56.574Z,82.21
2022-09-26T13:00:11.772Z,79.94
2022-09-26T13:03:00.125Z,81.51
2022-09-26T13:05:45.275Z,80.87
2022-09-26T13:08:35.033Z,81.99
2022-09-26T13:11:13.627Z,81.53
2022-09-26T13:13:51.319Z,79.29
2022-09-26T13:16:53.880Z,76.67
2022-09-26T13:19:30.129Z,72.20
2022-09-26T13:22:22.150Z,74.05
2022-09-26T13:24:52.594Z,75.31
2022-09-26T13:27:22.517Z,76.16
2022-09-26T13:30:00.813Z,74.73
2022-09-26T13:32:34.989Z,78.00
2022-09-26T13:35:35.929Z,79.53
2022-09-26T13:38:40.033Z,80.24
2022-09-26T13:41:25.431Z,80.58
2022-09-26T13:44:04.625Z,81.18
2022-09-26T13:46:55.910Z,83.10
2022-09-26T13:49:43.031Z,84.33
2022-09-26T13:52:24.597Z,83.43
2022-09-26T13:55:11.331Z,84.25
2022-09-26T13:57:45.812Z,85.46
2022-09-26T14:00:30.221Z,85.60
2022-09-26T14:03:21.865Z,86.86
2022-09-26T14:05:51.110Z,86.47
2022-09-26T14:08:47.320Z,85.91
2022-09-26T14:11:21.693Z,87.85
2022-09-26T14:13:48.972Z,88.14
2022-09-26T14:16:28.134Z,89.14
2022-09-26T14:19:09.335Z,89.57
2022-09-26T14:21:58.088Z,89.69
2022-09-26T14:24:38.693Z,89.92
2022-09-26T14:27:12.268Z,91.07
2022-09-26T14:29:38.947Z,91.10
2022-09-26T14:32:10.316Z,92.32
2022-09-26T14:34:57.486Z,91.61
2022-09-26T14:37:25.548Z,93.33
2022-09-26T14:40:11.241Z,92.29
2022-09-26T14:42:47.091Z,94.05
2022-09-26T14:45:19.508Z,93.45
2022-09-26T14:47:57.389Z,93.04
2022-09-26T14:50:35.414Z,92.70
2022-09-26T14:53:22.150Z,92.51
2022-09-26T14:56:07.230Z,91.83
2022-09-26T14:58:47.081Z,92.01
2022-09-26T15:01:19.041Z,92.91
2022-09-26T15:04:08.830Z,91.97
2022-09-26T15:06:55.908Z,92.48
2022-09-26T15:09:24.990Z,94.03
2022-09-26T15:12:02.988Z,94.45
2022-09-26T15:15:15.491Z,95.25
2022-09-26T15:17:53.054Z,96.56
2022-09-26T15:20:20.450Z,96.90
2022-09-26T15:22:47.867Z,97.96
2022-09-26T15:25:47.071Z,97.81
2022-09-26T15:28:13.910Z,98.13
2022-09-26T15:30:41.999Z,98.69
2022-09-26T15:33:16.653Z,98.54
2022-09-26T15:35:53.111Z,99.31
2022-09-26T15:38:19.952Z,99.45
2022-09-26T15:41:00.352Z,99.74
2022-09-26T15:43:27.314Z,100.00
2022-09-26T15:45:58.757Z,100.00
2022-09-26T15:48:25.916Z,100.00
2022-09-26T15:50:52.652Z,100.00
2022-09-26T15:53:34.533Z,100.00
2022-09-26T15:56:06.951Z,100.00
2022-09-26T15:58:57.470Z,100.00
2022-09-26T16:01:26.208Z,100.00
2022-09-26T16:04:00.500Z,100.00
2022-09-26T16:06:28.828Z,100.00
2022-09-26T16:09:04.171Z,100.00
2022-09-26T16:11:31.148Z,100.00
2022-09-26T16:13:58.257Z,100.00
2022-09-26T16:16:29.889Z,100.00
2022-09-26T16:18:58.929Z,100.00
2022-09-26T16:21:27.730Z,100.00
2022-09-26T16:23:56.708Z,100.00
2022-09-26T16:26:32.099Z,100.00
2022-09-26T16:29:00.337Z,100.00
2022-09-26T16:31:53.445Z,100.00
2022-09-26T16:34:21.750Z,100.00
2022-09-26T16:36:49.490Z,100.00
2022-09-26T16:39:30.009Z,100.00
2022-09-26T16:42:07.547Z,100.00
2022-09-26T16:44:40.417Z,100.00
2022-09-26T16:47:36.288Z,100.00
2022-09-26T16:50:26.726Z,100.00
2022-09-26T16:52:54.165Z,100.00
2022-09-26T16:55:21.130Z,100.00
2022-09-26T16:57:58.614Z,100.00
2022-09-26T17:00:52.697Z,100.00
2022-09-26T17:03:27.686Z,100.00
2022-09-26T17:05:58.332Z,100.00
2022-09-26T17:08:26.518Z,100.00
2022-09-26T17:10:53.734Z,100.00
2022-09-26T17:13:22.828Z,100.00
2022-09-26T17:15:55.631Z,100.00
2022-09-26T17:18:29.277Z,100.00
2022-09-26T17:20:56.623Z,100.00
2022-09-26T17:23:39.467Z,100.00
2022-09-26T17:26:07.836Z,100.00
2022-09-26T17:28:40.020Z,100.00
2022-09-26T17:31:07.909Z,100.00
2022-09-26T17:33:39.236Z,100.00
2022-09-26T17:36:10.853Z,100.00
2022-09-26T17:38:40.370Z,100.00
2022-09-26T17:41:07.484Z,100.00
2022-09-26T17:43:34.649Z,100.00
2022-09-26T17:46:01.603Z,100.00
2022-09-26T17:48:29.210Z,100.00
2022-09-26T17:50:56.215Z,100.00
2022-09-26T17:53:23.528Z,100.00
2022-09-26T17:55:50.654Z,100.00
2022-09-26T17:58:18.169Z,100.00
2022-09-26T18:00:45.114Z,100.00
2022-09-26T18:03:28.128Z,100.00
2022-09-26T18:05:55.012Z,100.00
2022-09-26T18:08:29.451Z,100.00
2022-09-26T18:11:03.172Z,100.00
2022-09-26T18:13:33.986Z,100.00
2022-09-26T18:16:01.171Z,100.00
2022-09-26T18:18:29.081Z,100.00
2022-09-26T18:20:57.422Z,100.00
2022-09-26T18:23:36.694Z,100.00
2022-09-26T18:26:04.090Z,100.00
2022-09-26T18:28:30.937Z,100.00
2022-09-26T18:30:59.213Z,100.00
2022-09-26T18:33:27.962Z,100.00
2022-09-26T18:35:55.289Z,100.00
2022-09-26T18:38:22.337Z,100.00
2022-09-26T18:40:51.835Z,100.00
2022-09-26T18:43:20.461Z,100.00
2022-09-26T18:45:47.314Z,100.00
2022-09-26T18:48:29.477Z,100.00
2022-09-26T18:50:57.689Z,100.00
2022-09-26T18:53:27.055Z,100.00
2022-09-26T18:56:12.249Z,100.00
2022-09-26T18:58:39.548Z,100.00
2022-09-26T19:01:33.241Z,100.00
2022-09-26T19:04:07.172Z,100.00
2022-09-26T19:06:38.414Z,100.00
2022-09-26T19:09:06.579Z,100.00
2022-09-26T19:11:35.098Z,100.00
2022-09-26T19:14:17.589Z,100.00
2022-09-26T19:16:45.311Z,100.00
2022-09-26T19:19:12.552Z,100.00
2022-09-26T19:22:08.101Z,100.00
2022-09-26T19:24:55.291Z,100.00
2022-09-26T19:27:30.654Z,100.00
2022-09-26T19:30:06.774Z,100.00
2022-09-26T19:32:38.338Z,100.00
2022-09-26T19:35:22.194Z,100.00
2022-09-26T19:37:49.337Z,100.00
2022-09-26T19:40:17.186Z,100.00
2022-09-26T19:42:44.249Z,100.00
2022-09-26T19:45:11.467Z,100.00
2022-09-26T19:47:39.494Z,100.00
2022-09-26T19:50:06.971Z,100.00
2022-09-26T19:52:33.908Z,100.00
2022-09-26T19:55:00.950Z,100.00
2022-09-26T19:57:28.041Z,100.00
2022-09-26T19:59:54.893Z,100.00
2022-09-26T20:02:23.222Z,100.00
2022-09-26T20:04:50.753Z,100.00
2022-09-26T20:07:19.332Z,100.00
2022-09-26T20:09:46.399Z,100.00
2022-09-26T20:12:13.290Z,100.00
2022-09-26T20:14:40.268Z,100.00
2022-09-26T20:17:24.497Z,100.00
2022-09-26T20:19:55.153Z,100.00
2022-09-26T20:22:24.815Z,100.00
2022-09-26T20:24:53.190Z,100.00
2022-09-26T20:27:28.149Z,100.00
2022-09-26T20:30:13.858Z,100.00
2022-09-26T20:32:41.470Z,100.00
2022-09-26T20:35:11.321Z,100.00
2022-09-26T20:37:39.923Z,100.00
2022-09-26T20:40:13.556Z,100.00
2022-09-26T20:42:40.746Z,100.00
2022-09-26T20:45:15.146Z,100.00
2022-09-26T20:47:43.033Z,100.00
2022-09-26T20:50:14.548Z,100.00
2022-09-26T20:52:42.668Z,100.00
2022-09-26T20:55:18.109Z,100.00
2022-09-26T20:57:45.613Z,100.00
2022-09-26T21:00:16.429Z,100.00
2022-09-26T21:02:43.884Z,100.00
2022-09-26T21:05:22.854Z,100.00
2022-09-26T21:07:50.428Z,100.00
2022-09-26T21:10:24.310Z,100.00
2022-09-26T21:12:51.589Z,100.00
2022-09-26T21:15:18.872Z,100.00
2022-09-26T21:17:46.588Z,100.00
2022-09-26T21:20:17.110Z,100.00
2022-09-26T21:22:44.246Z,100.00
2022-09-26T21:25:18.011Z,100.00
2022-09-26T21:27:48.469Z,100.00
2022-09-26T21:30:15.931Z,100.00
2022-09-26T21:32:59.551Z,100.00
2022-09-26T21:35:29.895Z,100.00
2022-09-26T21:37:57.335Z,100.00
2022-09-26T21:40:26.294Z,100.00
2022-09-26T21:42:55.550Z,100.00
2022-09-26T21:45:27.273Z,100.00
2022-09-26T21:47:55.808Z,100.00
2022-09-26T21:50:23.070Z,100.00
2022-09-26T21:52:51.808Z,100.00
2022-09-26T21:55:21.889Z,100.00
2022-09-26T21:57:49.089Z,100.00
2022-09-26T22:00:16.009Z,100.00
2022-09-26T22:02:42.876Z,100.00
2022-09-26T22:05:10.287Z,100.00
2022-09-26T22:07:37.309Z,100.00
2022-09-26T22:10:05.269Z,100.00
2022-09-26T22:12:32.309Z,100.00
2022-09-26T22:15:01.789Z,100.00
2022-09-26T22:17:28.756Z,100.00
2022-09-26T22:19:55.589Z,100.00
2022-09-26T22:22:22.394Z,100.00
2022-09-26T22:24:49.233Z,100.00
2022-09-26T22:27:16.108Z,100.00
2022-09-26T22:29:42.954Z,100.00
2022-09-26T22:32:09.787Z,100.00
2022-09-26T22:34:36.731Z,100.00
2022-09-26T22:37:03.568Z,100.00
2022-09-26T22:39:30.389Z,100.00
2022-09-26T22:41:57.197Z,100.00
2022-09-26T22:44:24.348Z,100.00
2022-09-26T22:46:51.168Z,100.00
2022-09-26T22:49:18.071Z,100.00
2022-09-26T22:51:44.888Z,100.00
2022-09-26T22:54:12.327Z,100.00
2022-09-26T22:56:39.187Z,100.00
2022-09-26T22:59:06.089Z,100.00
2022-09-26T23:01:32.977Z,100.00
2022-09-26T23:04:00.547Z,100.00
2022-09-26T23:06:27.615Z,100.00
2022-09-26T23:08:55.009Z,100.00
2022-09-26T23:11:22.811Z,100.00
2022-09-26T23:13:52.710Z,100.00
2022-09-26T23:16:21.363Z,100.00
2022-09-26T23:18:48.550Z,100.00
2022-09-26T23:21:19.971Z,100.00
2022-09-26T23:23:48.889Z,100.00
2022-09-26T23:26:26.691Z,100.00
2022-09-26T23:28:54.346Z,100.00
2022-09-26T23:31:21.349Z,100.00
2022-09-26T23:33:48.279Z,100.00
2022-09-26T23:36:15.328Z,100.00
2022-09-26T23:38:42.110Z,100.00
2022-09-26T23:41:09.893Z,100.00
2022-09-26T23:43:36.830Z,100.00
2022-09-26T23:46:03.878Z,100.00
2022-09-26T23:48:30.794Z,100.00
2022-09-26T23:50:57.780Z,100.00
2022-09-26T23:53:24.649Z,100.00
2022-09-26T23:55:51.528Z,100.00
2022-09-26T23:58:18.408Z,100.00
